sensor_id;sensor_type;location;lat;lon;timestamp;P1;durP1;ratioP1;P2;durP2;ratioP2
6053;SDS011;3055;50.886;14.814;2023-03-31T00:02:01;5.47;;;4.80;;
6053;SDS011;3055;50.886;14.814;2023-03-31T00:04:32;7.57;;;4.23;;
6053;SDS011;3055;50.886;14.814;2023-03-31T00:06:59;6.03;;;4.07;;
6053;SDS011;3055;50.886;14.814;2023-03-31T00:09:26;5.90;;;4.53;;
6053;SDS011;3055;50.886;14.814;2023-03-31T00:11:54;6.43;;;4.33;;
6053;SDS011;3055;50.886;14.814;2023-03-31T00:14:21;4.77;;;4.10;;
6053;SDS011;3055;50.886;14.814;2023-03-31T00:16:48;7.80;;;5.27;;
6053;SDS011;3055;50.886;14.814;2023-03-31T00:19:17;7.23;;;4.10;;
6053;SDS011;3055;50.886;14.814;2023-03-31T00:21:45;6.47;;;4.40;;
6053;SDS011;3055;50.886;14.814;2023-03-31T00:24:15;6.83;;;4.53;;
6053;SDS011;3055;50.886;14.814;2023-03-31T00:26:42;5.80;;;4.47;;
6053;SDS011;3055;50.886;14.814;2023-03-31T00:29:11;5.13;;;4.07;;
6053;SDS011;3055;50.886;14.814;2023-03-31T00:31:39;4.53;;;4.03;;
6053;SDS011;3055;50.886;14.814;2023-03-31T00:34:06;5.93;;;4.60;;
6053;SDS011;3055;50.886;14.814;2023-03-31T00:36:35;4.43;;;4.03;;
6053;SDS011;3055;50.886;14.814;2023-03-31T00:39:09;4.70;;;4.30;;
6053;SDS011;3055;50.886;14.814;2023-03-31T00:41:37;5.23;;;4.77;;
6053;SDS011;3055;50.886;14.814;2023-03-31T00:44:06;5.40;;;4.90;;
6053;SDS011;3055;50.886;14.814;2023-03-31T00:46:38;6.10;;;4.67;;
6053;SDS011;3055;50.886;14.814;2023-03-31T00:49:17;8.30;;;5.00;;
6053;SDS011;3055;50.886;14.814;2023-03-31T00:51:49;5.80;;;5.23;;
6053;SDS011;3055;50.886;14.814;2023-03-31T00:54:26;6.97;;;5.17;;
6053;SDS011;3055;50.886;14.814;2023-03-31T00:56:57;11.47;;;5.97;;
6053;SDS011;3055;50.886;14.814;2023-03-31T00:59:27;5.90;;;5.40;;
6053;SDS011;3055;50.886;14.814;2023-03-31T01:01:57;5.93;;;5.40;;
6053;SDS011;3055;50.886;14.814;2023-03-31T01:04:29;6.47;;;4.90;;
6053;SDS011;3055;50.886;14.814;2023-03-31T01:07:04;6.87;;;4.83;;
6053;SDS011;3055;50.886;14.814;2023-03-31T01:09:36;7.27;;;4.40;;
6053;SDS011;3055;50.886;14.814;2023-03-31T01:12:06;4.53;;;4.10;;
6053;SDS011;3055;50.886;14.814;2023-03-31T01:14:34;5.27;;;4.77;;
6053;SDS011;3055;50.886;14.814;2023-03-31T01:17:02;4.50;;;4.07;;
6053;SDS011;3055;50.886;14.814;2023-03-31T01:19:33;5.27;;;4.60;;
6053;SDS011;3055;50.886;14.814;2023-03-31T01:22:23;5.10;;;4.33;;
6053;SDS011;3055;50.886;14.814;2023-03-31T01:25:19;5.93;;;5.00;;
6053;SDS011;3055;50.886;14.814;2023-03-31T01:28:19;5.27;;;4.77;;
6053;SDS011;3055;50.886;14.814;2023-03-31T01:37:29;5.30;;;4.80;;
6053;SDS011;3055;50.886;14.814;2023-03-31T01:43:35;6.37;;;3.77;;
6053;SDS011;3055;50.886;14.814;2023-03-31T01:46:09;4.27;;;3.70;;
6053;SDS011;3055;50.886;14.814;2023-03-31T01:48:47;5.87;;;4.03;;
6053;SDS011;3055;50.886;14.814;2023-03-31T01:51:21;5.53;;;3.40;;
6053;SDS011;3055;50.886;14.814;2023-03-31T01:53:59;5.17;;;3.70;;
6053;SDS011;3055;50.886;14.814;2023-03-31T01:56:36;4.50;;;3.47;;
6053;SDS011;3055;50.886;14.814;2023-03-31T01:59:07;5.00;;;3.63;;
6053;SDS011;3055;50.886;14.814;2023-03-31T02:01:38;5.27;;;3.90;;
6053;SDS011;3055;50.886;14.814;2023-03-31T02:04:10;4.80;;;4.30;;
6053;SDS011;3055;50.886;14.814;2023-03-31T02:06:44;5.87;;;4.00;;
6053;SDS011;3055;50.886;14.814;2023-03-31T02:09:18;4.70;;;4.00;;
6053;SDS011;3055;50.886;14.814;2023-03-31T02:11:49;5.90;;;3.70;;
6053;SDS011;3055;50.886;14.814;2023-03-31T02:14:21;5.47;;;3.80;;
6053;SDS011;3055;50.886;14.814;2023-03-31T02:16:52;4.67;;;4.23;;
6053;SDS011;3055;50.886;14.814;2023-03-31T02:19:24;6.97;;;3.93;;
6053;SDS011;3055;50.886;14.814;2023-03-31T02:21:54;6.10;;;4.70;;
6053;SDS011;3055;50.886;14.814;2023-03-31T02:24:23;5.30;;;4.30;;
6053;SDS011;3055;50.886;14.814;2023-03-31T02:26:56;5.73;;;4.20;;
6053;SDS011;3055;50.886;14.814;2023-03-31T02:29:28;4.93;;;3.97;;
6053;SDS011;3055;50.886;14.814;2023-03-31T02:31:57;5.53;;;4.67;;
6053;SDS011;3055;50.886;14.814;2023-03-31T02:34:27;5.13;;;4.37;;
6053;SDS011;3055;50.886;14.814;2023-03-31T02:36:55;6.63;;;4.30;;
6053;SDS011;3055;50.886;14.814;2023-03-31T02:39:23;7.37;;;4.90;;
6053;SDS011;3055;50.886;14.814;2023-03-31T02:41:54;6.63;;;5.10;;
6053;SDS011;3055;50.886;14.814;2023-03-31T02:44:22;6.27;;;5.63;;
6053;SDS011;3055;50.886;14.814;2023-03-31T02:46:50;7.60;;;5.77;;
6053;SDS011;3055;50.886;14.814;2023-03-31T02:49:17;7.37;;;6.43;;
6053;SDS011;3055;50.886;14.814;2023-03-31T02:51:48;7.07;;;6.33;;
6053;SDS011;3055;50.886;14.814;2023-03-31T02:54:35;7.37;;;6.60;;
6053;SDS011;3055;50.886;14.814;2023-03-31T03:00:30;9.60;;;6.70;;
6053;SDS011;3055;50.886;14.814;2023-03-31T03:03:12;7.27;;;6.57;;
6053;SDS011;3055;50.886;14.814;2023-03-31T03:05:49;7.90;;;6.60;;
6053;SDS011;3055;50.886;14.814;2023-03-31T03:08:32;10.23;;;6.97;;
6053;SDS011;3055;50.886;14.814;2023-03-31T03:11:11;9.90;;;6.83;;
6053;SDS011;3055;50.886;14.814;2023-03-31T03:13:48;9.87;;;6.67;;
6053;SDS011;3055;50.886;14.814;2023-03-31T03:16:18;7.37;;;6.00;;
6053;SDS011;3055;50.886;14.814;2023-03-31T03:18:56;8.87;;;6.63;;
6053;SDS011;3055;50.886;14.814;2023-03-31T03:21:23;7.77;;;6.77;;
6053;SDS011;3055;50.886;14.814;2023-03-31T03:23:50;7.77;;;6.63;;
6053;SDS011;3055;50.886;14.814;2023-03-31T03:26:18;8.53;;;6.33;;
6053;SDS011;3055;50.886;14.814;2023-03-31T03:28:49;14.07;;;7.77;;
6053;SDS011;3055;50.886;14.814;2023-03-31T03:31:16;8.70;;;6.50;;
6053;SDS011;3055;50.886;14.814;2023-03-31T03:33:43;7.77;;;7.03;;
6053;SDS011;3055;50.886;14.814;2023-03-31T03:36:10;8.23;;;7.33;;
6053;SDS011;3055;50.886;14.814;2023-03-31T03:38:38;8.80;;;7.90;;
6053;SDS011;3055;50.886;14.814;2023-03-31T03:41:05;8.77;;;7.60;;
6053;SDS011;3055;50.886;14.814;2023-03-31T03:43:32;8.00;;;7.20;;
6053;SDS011;3055;50.886;14.814;2023-03-31T03:46:01;7.70;;;6.73;;
6053;SDS011;3055;50.886;14.814;2023-03-31T03:48:29;8.37;;;7.53;;
6053;SDS011;3055;50.886;14.814;2023-03-31T03:50:58;9.37;;;8.30;;
6053;SDS011;3055;50.886;14.814;2023-03-31T03:53:25;13.10;;;8.83;;
6053;SDS011;3055;50.886;14.814;2023-03-31T03:55:52;10.40;;;8.97;;
6053;SDS011;3055;50.886;14.814;2023-03-31T03:58:19;11.23;;;9.63;;
6053;SDS011;3055;50.886;14.814;2023-03-31T04:00:46;11.67;;;9.37;;
6053;SDS011;3055;50.886;14.814;2023-03-31T04:03:15;10.43;;;8.73;;
6053;SDS011;3055;50.886;14.814;2023-03-31T04:05:42;11.73;;;8.90;;
6053;SDS011;3055;50.886;14.814;2023-03-31T04:08:10;10.73;;;8.40;;
6053;SDS011;3055;50.886;14.814;2023-03-31T04:10:37;13.97;;;9.20;;
6053;SDS011;3055;50.886;14.814;2023-03-31T04:13:08;9.90;;;8.73;;
6053;SDS011;3055;50.886;14.814;2023-03-31T04:15:35;12.90;;;8.83;;
6053;SDS011;3055;50.886;14.814;2023-03-31T04:18:02;13.13;;;9.57;;
6053;SDS011;3055;50.886;14.814;2023-03-31T04:20:31;13.33;;;10.47;;
6053;SDS011;3055;50.886;14.814;2023-03-31T04:22:58;13.10;;;9.83;;
6053;SDS011;3055;50.886;14.814;2023-03-31T04:25:26;13.30;;;10.70;;
6053;SDS011;3055;50.886;14.814;2023-03-31T04:27:54;14.97;;;11.60;;
6053;SDS011;3055;50.886;14.814;2023-03-31T04:30:22;15.23;;;12.33;;
6053;SDS011;3055;50.886;14.814;2023-03-31T04:32:55;15.63;;;13.07;;
6053;SDS011;3055;50.886;14.814;2023-03-31T04:35:24;14.57;;;11.37;;
6053;SDS011;3055;50.886;14.814;2023-03-31T04:38:13;11.93;;;10.43;;
6053;SDS011;3055;50.886;14.814;2023-03-31T04:40:42;11.97;;;10.70;;
6053;SDS011;3055;50.886;14.814;2023-03-31T04:43:10;16.73;;;11.80;;
6053;SDS011;3055;50.886;14.814;2023-03-31T04:45:37;12.33;;;11.03;;
6053;SDS011;3055;50.886;14.814;2023-03-31T04:48:04;14.47;;;10.63;;
6053;SDS011;3055;50.886;14.814;2023-03-31T04:50:32;13.07;;;10.07;;
6053;SDS011;3055;50.886;14.814;2023-03-31T04:52:59;11.80;;;10.37;;
6053;SDS011;3055;50.886;14.814;2023-03-31T04:55:27;13.17;;;9.40;;
6053;SDS011;3055;50.886;14.814;2023-03-31T04:57:54;12.67;;;9.27;;
6053;SDS011;3055;50.886;14.814;2023-03-31T05:00:21;10.57;;;9.47;;
6053;SDS011;3055;50.886;14.814;2023-03-31T05:02:49;11.30;;;9.87;;
6053;SDS011;3055;50.886;14.814;2023-03-31T05:05:16;10.87;;;8.87;;
6053;SDS011;3055;50.886;14.814;2023-03-31T05:07:43;12.20;;;9.70;;
6053;SDS011;3055;50.886;14.814;2023-03-31T05:10:10;13.53;;;10.10;;
6053;SDS011;3055;50.886;14.814;2023-03-31T05:12:39;13.57;;;9.80;;
6053;SDS011;3055;50.886;14.814;2023-03-31T05:15:06;11.53;;;9.73;;
6053;SDS011;3055;50.886;14.814;2023-03-31T05:17:34;11.13;;;10.03;;
6053;SDS011;3055;50.886;14.814;2023-03-31T05:20:02;14.03;;;9.83;;
6053;SDS011;3055;50.886;14.814;2023-03-31T05:22:33;12.93;;;10.43;;
6053;SDS011;3055;50.886;14.814;2023-03-31T05:25:01;11.57;;;9.80;;
6053;SDS011;3055;50.886;14.814;2023-03-31T05:27:28;12.27;;;9.03;;
6053;SDS011;3055;50.886;14.814;2023-03-31T05:29:57;11.90;;;8.97;;
6053;SDS011;3055;50.886;14.814;2023-03-31T05:32:25;9.33;;;8.53;;
6053;SDS011;3055;50.886;14.814;2023-03-31T05:34:52;11.23;;;8.43;;
6053;SDS011;3055;50.886;14.814;2023-03-31T05:37:21;9.77;;;8.77;;
6053;SDS011;3055;50.886;14.814;2023-03-31T05:39:49;13.17;;;8.60;;
6053;SDS011;3055;50.886;14.814;2023-03-31T05:42:16;9.67;;;8.17;;
6053;SDS011;3055;50.886;14.814;2023-03-31T05:44:43;9.17;;;7.97;;
6053;SDS011;3055;50.886;14.814;2023-03-31T05:47:12;10.00;;;8.53;;
6053;SDS011;3055;50.886;14.814;2023-03-31T05:49:39;9.23;;;6.80;;
6053;SDS011;3055;50.886;14.814;2023-03-31T05:52:07;7.30;;;6.60;;
6053;SDS011;3055;50.886;14.814;2023-03-31T05:54:35;8.50;;;6.57;;
6053;SDS011;3055;50.886;14.814;2023-03-31T05:57:02;8.50;;;7.60;;
6053;SDS011;3055;50.886;14.814;2023-03-31T05:59:29;8.33;;;6.33;;
6053;SDS011;3055;50.886;14.814;2023-03-31T06:01:59;9.57;;;6.43;;
6053;SDS011;3055;50.886;14.814;2023-03-31T06:04:27;9.10;;;6.60;;
6053;SDS011;3055;50.886;14.814;2023-03-31T06:06:55;8.10;;;6.87;;
6053;SDS011;3055;50.886;14.814;2023-03-31T06:09:22;8.50;;;7.20;;
6053;SDS011;3055;50.886;14.814;2023-03-31T06:11:50;12.03;;;7.13;;
6053;SDS011;3055;50.886;14.814;2023-03-31T06:14:17;8.73;;;7.67;;
6053;SDS011;3055;50.886;14.814;2023-03-31T06:16:44;12.17;;;8.37;;
6053;SDS011;3055;50.886;14.814;2023-03-31T06:19:12;8.90;;;6.90;;
6053;SDS011;3055;50.886;14.814;2023-03-31T06:21:40;12.90;;;7.50;;
6053;SDS011;3055;50.886;14.814;2023-03-31T06:24:08;8.70;;;7.23;;
6053;SDS011;3055;50.886;14.814;2023-03-31T06:26:35;9.43;;;7.17;;
6053;SDS011;3055;50.886;14.814;2023-03-31T06:29:02;8.70;;;6.50;;
6053;SDS011;3055;50.886;14.814;2023-03-31T06:31:29;8.70;;;6.57;;
6053;SDS011;3055;50.886;14.814;2023-03-31T06:33:56;7.60;;;6.67;;
6053;SDS011;3055;50.886;14.814;2023-03-31T06:36:23;7.20;;;6.23;;
6053;SDS011;3055;50.886;14.814;2023-03-31T06:38:52;9.00;;;7.17;;
6053;SDS011;3055;50.886;14.814;2023-03-31T06:41:19;8.00;;;6.83;;
6053;SDS011;3055;50.886;14.814;2023-03-31T06:43:47;9.53;;;6.33;;
6053;SDS011;3055;50.886;14.814;2023-03-31T06:46:14;5.97;;;5.47;;
6053;SDS011;3055;50.886;14.814;2023-03-31T06:48:41;11.53;;;6.43;;
6053;SDS011;3055;50.886;14.814;2023-03-31T06:51:08;9.30;;;5.77;;
6053;SDS011;3055;50.886;14.814;2023-03-31T06:53:37;6.30;;;5.37;;
6053;SDS011;3055;50.886;14.814;2023-03-31T06:56:05;8.50;;;6.03;;
6053;SDS011;3055;50.886;14.814;2023-03-31T06:58:33;8.00;;;6.00;;
6053;SDS011;3055;50.886;14.814;2023-03-31T07:01:01;9.13;;;5.07;;
6053;SDS011;3055;50.886;14.814;2023-03-31T07:03:29;6.27;;;5.60;;
6053;SDS011;3055;50.886;14.814;2023-03-31T07:05:56;7.13;;;4.60;;
6053;SDS011;3055;50.886;14.814;2023-03-31T07:08:23;7.23;;;4.83;;
6053;SDS011;3055;50.886;14.814;2023-03-31T07:10:52;5.47;;;4.63;;
6053;SDS011;3055;50.886;14.814;2023-03-31T07:13:23;6.90;;;4.90;;
6053;SDS011;3055;50.886;14.814;2023-03-31T07:15:50;6.93;;;5.10;;
6053;SDS011;3055;50.886;14.814;2023-03-31T07:18:18;7.17;;;4.40;;
6053;SDS011;3055;50.886;14.814;2023-03-31T07:20:49;5.87;;;4.10;;
6053;SDS011;3055;50.886;14.814;2023-03-31T07:23:16;5.53;;;3.97;;
6053;SDS011;3055;50.886;14.814;2023-03-31T07:25:43;7.03;;;4.43;;
6053;SDS011;3055;50.886;14.814;2023-03-31T07:28:11;4.50;;;4.10;;
6053;SDS011;3055;50.886;14.814;2023-03-31T07:30:40;4.70;;;4.20;;
6053;SDS011;3055;50.886;14.814;2023-03-31T07:33:07;5.23;;;4.40;;
6053;SDS011;3055;50.886;14.814;2023-03-31T07:35:36;7.90;;;4.00;;
6053;SDS011;3055;50.886;14.814;2023-03-31T07:38:03;5.93;;;3.90;;
6053;SDS011;3055;50.886;14.814;2023-03-31T07:40:31;8.00;;;4.37;;
6053;SDS011;3055;50.886;14.814;2023-03-31T07:42:58;7.47;;;4.73;;
6053;SDS011;3055;50.886;14.814;2023-03-31T07:45:25;5.57;;;4.10;;
6053;SDS011;3055;50.886;14.814;2023-03-31T07:47:54;4.57;;;3.43;;
6053;SDS011;3055;50.886;14.814;2023-03-31T07:50:21;4.17;;;3.67;;
6053;SDS011;3055;50.886;14.814;2023-03-31T07:52:49;6.00;;;4.50;;
6053;SDS011;3055;50.886;14.814;2023-03-31T07:55:17;4.97;;;4.07;;
6053;SDS011;3055;50.886;14.814;2023-03-31T07:57:44;6.80;;;3.80;;
6053;SDS011;3055;50.886;14.814;2023-03-31T08:00:12;6.53;;;3.67;;
6053;SDS011;3055;50.886;14.814;2023-03-31T08:02:41;7.10;;;4.20;;
6053;SDS011;3055;50.886;14.814;2023-03-31T08:05:10;5.93;;;3.97;;
6053;SDS011;3055;50.886;14.814;2023-03-31T08:07:39;5.80;;;3.67;;
6053;SDS011;3055;50.886;14.814;2023-03-31T08:10:09;5.53;;;4.10;;
6053;SDS011;3055;50.886;14.814;2023-03-31T08:12:38;5.93;;;3.73;;
6053;SDS011;3055;50.886;14.814;2023-03-31T08:15:05;7.33;;;3.63;;
6053;SDS011;3055;50.886;14.814;2023-03-31T08:17:34;4.47;;;3.40;;
6053;SDS011;3055;50.886;14.814;2023-03-31T08:20:01;6.37;;;3.90;;
6053;SDS011;3055;50.886;14.814;2023-03-31T08:22:32;8.73;;;4.53;;
6053;SDS011;3055;50.886;14.814;2023-03-31T08:24:59;5.00;;;4.20;;
6053;SDS011;3055;50.886;14.814;2023-03-31T08:27:26;5.47;;;4.43;;
6053;SDS011;3055;50.886;14.814;2023-03-31T08:29:53;6.97;;;4.00;;
6053;SDS011;3055;50.886;14.814;2023-03-31T08:32:21;6.20;;;4.67;;
6053;SDS011;3055;50.886;14.814;2023-03-31T08:34:49;4.43;;;3.87;;
6053;SDS011;3055;50.886;14.814;2023-03-31T08:37:16;5.90;;;3.33;;
6053;SDS011;3055;50.886;14.814;2023-03-31T08:39:45;5.13;;;3.70;;
6053;SDS011;3055;50.886;14.814;2023-03-31T08:42:13;4.60;;;3.70;;
6053;SDS011;3055;50.886;14.814;2023-03-31T08:44:44;7.60;;;3.47;;
6053;SDS011;3055;50.886;14.814;2023-03-31T08:47:19;4.10;;;3.00;;
6053;SDS011;3055;50.886;14.814;2023-03-31T08:49:50;5.33;;;3.13;;
6053;SDS011;3055;50.886;14.814;2023-03-31T08:52:21;4.43;;;3.40;;
6053;SDS011;3055;50.886;14.814;2023-03-31T08:54:54;6.37;;;3.80;;
6053;SDS011;3055;50.886;14.814;2023-03-31T08:57:24;8.27;;;3.50;;
6053;SDS011;3055;50.886;14.814;2023-03-31T08:59:57;5.27;;;3.57;;
6053;SDS011;3055;50.886;14.814;2023-03-31T09:02:32;4.97;;;4.23;;
6053;SDS011;3055;50.886;14.814;2023-03-31T09:05:15;10.17;;;4.10;;
6053;SDS011;3055;50.886;14.814;2023-03-31T09:07:58;5.97;;;4.27;;
6053;SDS011;3055;50.886;14.814;2023-03-31T09:10:40;6.97;;;4.57;;
6053;SDS011;3055;50.886;14.814;2023-03-31T09:16:14;7.40;;;4.70;;
6053;SDS011;3055;50.886;14.814;2023-03-31T09:18:43;7.43;;;5.13;;
6053;SDS011;3055;50.886;14.814;2023-03-31T09:21:12;8.10;;;5.50;;
6053;SDS011;3055;50.886;14.814;2023-03-31T09:23:45;6.50;;;5.80;;
6053;SDS011;3055;50.886;14.814;2023-03-31T09:26:22;6.60;;;5.40;;
6053;SDS011;3055;50.886;14.814;2023-03-31T09:28:51;8.37;;;5.87;;
6053;SDS011;3055;50.886;14.814;2023-03-31T09:31:25;11.30;;;6.43;;
6053;SDS011;3055;50.886;14.814;2023-03-31T09:33:54;6.23;;;5.20;;
6053;SDS011;3055;50.886;14.814;2023-03-31T09:36:26;6.27;;;5.47;;
6053;SDS011;3055;50.886;14.814;2023-03-31T09:38:53;7.30;;;5.10;;
6053;SDS011;3055;50.886;14.814;2023-03-31T09:41:22;5.93;;;4.90;;
6053;SDS011;3055;50.886;14.814;2023-03-31T09:43:50;6.33;;;4.73;;
6053;SDS011;3055;50.886;14.814;2023-03-31T09:46:18;5.83;;;5.27;;
6053;SDS011;3055;50.886;14.814;2023-03-31T09:48:53;7.00;;;5.30;;
6053;SDS011;3055;50.886;14.814;2023-03-31T09:51:26;9.37;;;5.27;;
6053;SDS011;3055;50.886;14.814;2023-03-31T09:53:57;9.57;;;5.33;;
6053;SDS011;3055;50.886;14.814;2023-03-31T09:56:47;7.03;;;4.80;;
6053;SDS011;3055;50.886;14.814;2023-03-31T09:59:18;7.80;;;5.30;;
6053;SDS011;3055;50.886;14.814;2023-03-31T10:01:46;8.77;;;5.23;;
6053;SDS011;3055;50.886;14.814;2023-03-31T10:04:17;8.30;;;5.17;;
6053;SDS011;3055;50.886;14.814;2023-03-31T10:06:47;5.73;;;4.40;;
6053;SDS011;3055;50.886;14.814;2023-03-31T10:09:16;7.00;;;4.40;;
6053;SDS011;3055;50.886;14.814;2023-03-31T10:11:54;7.83;;;5.07;;
6053;SDS011;3055;50.886;14.814;2023-03-31T10:14:26;8.17;;;4.60;;
6053;SDS011;3055;50.886;14.814;2023-03-31T10:17:04;7.80;;;5.20;;
6053;SDS011;3055;50.886;14.814;2023-03-31T10:19:32;6.77;;;5.30;;
6053;SDS011;3055;50.886;14.814;2023-03-31T10:22:02;6.90;;;5.37;;
6053;SDS011;3055;50.886;14.814;2023-03-31T10:24:36;5.83;;;4.73;;
6053;SDS011;3055;50.886;14.814;2023-03-31T10:27:11;5.40;;;4.47;;
6053;SDS011;3055;50.886;14.814;2023-03-31T10:29:45;6.10;;;4.03;;
6053;SDS011;3055;50.886;14.814;2023-03-31T10:32:15;6.73;;;5.17;;
6053;SDS011;3055;50.886;14.814;2023-03-31T10:34:47;6.97;;;4.80;;
6053;SDS011;3055;50.886;14.814;2023-03-31T10:37:15;7.97;;;4.87;;
6053;SDS011;3055;50.886;14.814;2023-03-31T10:39:45;6.70;;;5.00;;
6053;SDS011;3055;50.886;14.814;2023-03-31T10:42:19;7.70;;;5.00;;
6053;SDS011;3055;50.886;14.814;2023-03-31T10:44:47;6.63;;;4.33;;
6053;SDS011;3055;50.886;14.814;2023-03-31T10:47:18;7.90;;;5.80;;
6053;SDS011;3055;50.886;14.814;2023-03-31T10:49:47;11.17;;;8.30;;
6053;SDS011;3055;50.886;14.814;2023-03-31T10:52:18;18.80;;;14.80;;
6053;SDS011;3055;50.886;14.814;2023-03-31T10:54:47;15.23;;;11.93;;
6053;SDS011;3055;50.886;14.814;2023-03-31T10:57:16;14.43;;;11.03;;
6053;SDS011;3055;50.886;14.814;2023-03-31T10:59:54;11.80;;;8.70;;
6053;SDS011;3055;50.886;14.814;2023-03-31T11:02:46;15.67;;;13.97;;
6053;SDS011;3055;50.886;14.814;2023-03-31T11:05:35;11.40;;;8.70;;
6053;SDS011;3055;50.886;14.814;2023-03-31T11:08:15;6.10;;;4.87;;
6053;SDS011;3055;50.886;14.814;2023-03-31T11:11:11;7.80;;;5.27;;
6053;SDS011;3055;50.886;14.814;2023-03-31T11:13:50;8.57;;;4.83;;
6053;SDS011;3055;50.886;14.814;2023-03-31T11:16:27;5.43;;;4.93;;
6053;SDS011;3055;50.886;14.814;2023-03-31T11:19:05;6.67;;;4.90;;
6053;SDS011;3055;50.886;14.814;2023-03-31T11:21:46;11.27;;;4.37;;
6053;SDS011;3055;50.886;14.814;2023-03-31T11:24:27;6.67;;;4.50;;
6053;SDS011;3055;50.886;14.814;2023-03-31T11:27:04;9.63;;;5.80;;
6053;SDS011;3055;50.886;14.814;2023-03-31T11:29:44;7.30;;;3.67;;
6053;SDS011;3055;50.886;14.814;2023-03-31T11:32:21;6.97;;;4.30;;
6053;SDS011;3055;50.886;14.814;2023-03-31T11:35:05;6.17;;;4.40;;
6053;SDS011;3055;50.886;14.814;2023-03-31T11:37:55;7.93;;;5.23;;
6053;SDS011;3055;50.886;14.814;2023-03-31T11:40:42;7.87;;;4.07;;
6053;SDS011;3055;50.886;14.814;2023-03-31T11:43:19;7.97;;;4.50;;
6053;SDS011;3055;50.886;14.814;2023-03-31T11:45:54;6.70;;;4.50;;
6053;SDS011;3055;50.886;14.814;2023-03-31T11:48:28;7.87;;;3.90;;
6053;SDS011;3055;50.886;14.814;2023-03-31T11:51:01;7.03;;;3.77;;
6053;SDS011;3055;50.886;14.814;2023-03-31T11:53:31;5.60;;;3.53;;
6053;SDS011;3055;50.886;14.814;2023-03-31T11:56:01;5.67;;;3.07;;
6053;SDS011;3055;50.886;14.814;2023-03-31T11:58:32;5.80;;;3.60;;
6053;SDS011;3055;50.886;14.814;2023-03-31T12:01:06;5.37;;;3.13;;
6053;SDS011;3055;50.886;14.814;2023-03-31T12:03:40;3.53;;;2.87;;
6053;SDS011;3055;50.886;14.814;2023-03-31T12:06:14;3.63;;;2.90;;
6053;SDS011;3055;50.886;14.814;2023-03-31T12:08:46;8.40;;;3.50;;
6053;SDS011;3055;50.886;14.814;2023-03-31T12:11:21;5.47;;;3.73;;
6053;SDS011;3055;50.886;14.814;2023-03-31T12:13:55;6.83;;;3.60;;
6053;SDS011;3055;50.886;14.814;2023-03-31T12:16:28;6.27;;;3.90;;
6053;SDS011;3055;50.886;14.814;2023-03-31T12:19:04;9.93;;;3.77;;
6053;SDS011;3055;50.886;14.814;2023-03-31T12:21:38;6.77;;;3.30;;
6053;SDS011;3055;50.886;14.814;2023-03-31T12:24:09;6.03;;;3.77;;
6053;SDS011;3055;50.886;14.814;2023-03-31T12:26:39;4.67;;;3.70;;
6053;SDS011;3055;50.886;14.814;2023-03-31T12:29:16;7.27;;;3.40;;
6053;SDS011;3055;50.886;14.814;2023-03-31T12:31:53;5.63;;;3.40;;
6053;SDS011;3055;50.886;14.814;2023-03-31T12:34:22;7.43;;;3.70;;
6053;SDS011;3055;50.886;14.814;2023-03-31T12:36:55;5.33;;;3.53;;
6053;SDS011;3055;50.886;14.814;2023-03-31T12:39:37;6.73;;;3.37;;
6053;SDS011;3055;50.886;14.814;2023-03-31T12:42:24;6.03;;;3.10;;
6053;SDS011;3055;50.886;14.814;2023-03-31T12:45:05;5.93;;;2.97;;
6053;SDS011;3055;50.886;14.814;2023-03-31T12:47:46;4.00;;;2.70;;
6053;SDS011;3055;50.886;14.814;2023-03-31T12:53:23;4.63;;;3.13;;
6053;SDS011;3055;50.886;14.814;2023-03-31T12:55:57;3.30;;;2.70;;
6053;SDS011;3055;50.886;14.814;2023-03-31T12:58:35;5.40;;;2.80;;
6053;SDS011;3055;50.886;14.814;2023-03-31T13:01:11;5.53;;;2.70;;
6053;SDS011;3055;50.886;14.814;2023-03-31T13:03:48;3.13;;;2.63;;
6053;SDS011;3055;50.886;14.814;2023-03-31T13:09:41;4.17;;;2.60;;
6053;SDS011;3055;50.886;14.814;2023-03-31T13:12:19;3.63;;;2.80;;
6053;SDS011;3055;50.886;14.814;2023-03-31T13:14:48;4.20;;;2.60;;
6053;SDS011;3055;50.886;14.814;2023-03-31T13:20:23;4.13;;;2.57;;
6053;SDS011;3055;50.886;14.814;2023-03-31T13:23:00;3.20;;;2.30;;
6053;SDS011;3055;50.886;14.814;2023-03-31T13:28:17;4.93;;;3.30;;
6053;SDS011;3055;50.886;14.814;2023-03-31T13:30:58;4.17;;;2.60;;
6053;SDS011;3055;50.886;14.814;2023-03-31T13:33:30;5.87;;;2.87;;
6053;SDS011;3055;50.886;14.814;2023-03-31T13:36:07;4.23;;;2.90;;
6053;SDS011;3055;50.886;14.814;2023-03-31T13:38:58;3.23;;;2.90;;
6053;SDS011;3055;50.886;14.814;2023-03-31T13:41:40;3.30;;;3.00;;
6053;SDS011;3055;50.886;14.814;2023-03-31T13:44:36;3.97;;;3.60;;
6053;SDS011;3055;50.886;14.814;2023-03-31T13:50:32;5.20;;;3.43;;
6053;SDS011;3055;50.886;14.814;2023-03-31T13:53:13;5.50;;;2.97;;
6053;SDS011;3055;50.886;14.814;2023-03-31T13:56:00;7.60;;;2.93;;
6053;SDS011;3055;50.886;14.814;2023-03-31T13:58:40;4.63;;;3.10;;
6053;SDS011;3055;50.886;14.814;2023-03-31T14:07:26;4.27;;;2.93;;
6053;SDS011;3055;50.886;14.814;2023-03-31T14:09:58;3.17;;;2.87;;
6053;SDS011;3055;50.886;14.814;2023-03-31T14:12:30;4.40;;;3.07;;
6053;SDS011;3055;50.886;14.814;2023-03-31T14:14:58;4.77;;;3.37;;
6053;SDS011;3055;50.886;14.814;2023-03-31T14:17:26;3.60;;;2.73;;
6053;SDS011;3055;50.886;14.814;2023-03-31T14:22:58;3.73;;;3.43;;
6053;SDS011;3055;50.886;14.814;2023-03-31T14:25:39;5.73;;;3.30;;
6053;SDS011;3055;50.886;14.814;2023-03-31T14:28:24;4.60;;;3.57;;
6053;SDS011;3055;50.886;14.814;2023-03-31T14:31:10;3.50;;;3.20;;
6053;SDS011;3055;50.886;14.814;2023-03-31T14:33:47;5.53;;;3.37;;
6053;SDS011;3055;50.886;14.814;2023-03-31T14:36:33;4.70;;;3.10;;
6053;SDS011;3055;50.886;14.814;2023-03-31T14:39:07;4.50;;;2.80;;
6053;SDS011;3055;50.886;14.814;2023-03-31T14:41:38;5.53;;;3.10;;
6053;SDS011;3055;50.886;14.814;2023-03-31T14:44:06;2.77;;;2.57;;
6053;SDS011;3055;50.886;14.814;2023-03-31T14:46:40;3.80;;;2.90;;
6053;SDS011;3055;50.886;14.814;2023-03-31T14:49:13;6.37;;;3.20;;
6053;SDS011;3055;50.886;14.814;2023-03-31T14:51:44;3.30;;;3.00;;
6053;SDS011;3055;50.886;14.814;2023-03-31T14:54:14;4.00;;;2.90;;
6053;SDS011;3055;50.886;14.814;2023-03-31T14:56:44;4.17;;;2.83;;
6053;SDS011;3055;50.886;14.814;2023-03-31T14:59:15;3.97;;;2.80;;
6053;SDS011;3055;50.886;14.814;2023-03-31T15:01:46;3.07;;;2.60;;
6053;SDS011;3055;50.886;14.814;2023-03-31T15:04:14;5.37;;;2.73;;
6053;SDS011;3055;50.886;14.814;2023-03-31T15:06:46;3.73;;;3.07;;
6053;SDS011;3055;50.886;14.814;2023-03-31T15:09:17;3.30;;;3.00;;
6053;SDS011;3055;50.886;14.814;2023-03-31T15:11:51;4.30;;;2.73;;
6053;SDS011;3055;50.886;14.814;2023-03-31T15:14:21;3.63;;;2.73;;
6053;SDS011;3055;50.886;14.814;2023-03-31T15:16:49;3.10;;;2.80;;
6053;SDS011;3055;50.886;14.814;2023-03-31T15:19:16;3.67;;;2.60;;
6053;SDS011;3055;50.886;14.814;2023-03-31T15:21:46;2.63;;;2.43;;
6053;SDS011;3055;50.886;14.814;2023-03-31T15:24:20;3.43;;;2.77;;
6053;SDS011;3055;50.886;14.814;2023-03-31T15:26:50;5.20;;;3.03;;
6053;SDS011;3055;50.886;14.814;2023-03-31T15:29:22;4.20;;;3.30;;
6053;SDS011;3055;50.886;14.814;2023-03-31T15:31:54;4.27;;;2.80;;
6053;SDS011;3055;50.886;14.814;2023-03-31T15:34:24;2.80;;;2.50;;
6053;SDS011;3055;50.886;14.814;2023-03-31T15:36:57;4.10;;;2.73;;
6053;SDS011;3055;50.886;14.814;2023-03-31T15:39:26;3.33;;;3.03;;
6053;SDS011;3055;50.886;14.814;2023-03-31T15:41:57;3.77;;;2.23;;
6053;SDS011;3055;50.886;14.814;2023-03-31T15:44:34;3.63;;;2.63;;
6053;SDS011;3055;50.886;14.814;2023-03-31T15:47:10;3.73;;;2.93;;
6053;SDS011;3055;50.886;14.814;2023-03-31T15:49:45;3.60;;;2.47;;
6053;SDS011;3055;50.886;14.814;2023-03-31T15:52:25;3.43;;;2.70;;
6053;SDS011;3055;50.886;14.814;2023-03-31T15:54:54;3.53;;;2.63;;
6053;SDS011;3055;50.886;14.814;2023-03-31T15:57:29;3.60;;;2.87;;
6053;SDS011;3055;50.886;14.814;2023-03-31T16:00:00;4.67;;;3.07;;
6053;SDS011;3055;50.886;14.814;2023-03-31T16:02:37;3.60;;;2.93;;
6053;SDS011;3055;50.886;14.814;2023-03-31T16:05:15;4.73;;;3.70;;
6053;SDS011;3055;50.886;14.814;2023-03-31T16:07:49;6.73;;;4.40;;